EDT,Max TemperatureF,Mean TemperatureF,Min TemperatureF,Max Dew PointF,MeanDew PointF,Min DewpointF,Max Humidity, Mean Humidity, Min Humidity, Max Sea Level PressureIn, Mean Sea Level PressureIn, Min Sea Level PressureIn, Max VisibilityMiles, Mean VisibilityMiles, Min VisibilityMiles, Max Wind SpeedMPH, Mean Wind SpeedMPH, Max Gust SpeedMPH,PrecipitationIn, CloudCover, Events, WindDirDegrees
2012-4-1,83,78,73,71,69,65,87,76,64,29.99,29.94,29.91,10,10,10,12,4,14,0.00,1,,355
2012-4-2,84,79,73,70,68,65,84,75,65,29.96,29.92,29.88,10,10,10,12,5,17,0.00,1,,58
2012-4-3,84,79,74,72,70,68,87,76,65,29.99,29.96,29.92,10,10,10,14,8,18,0.00,0,,110
2012-4-4,83,81,78,70,69,66,74,70,65,29.99,29.92,29.86,10,10,10,15,11,20,0.00,0,,138
2012-4-5,83,78,72,75,70,64,91,77,62,29.91,29.87,29.79,10,10,6,30,11,38,0.30,2,Rain-Thunderstorm,229
2012-4-6,85,80,75,74,72,66,85,78,70,29.94,29.87,29.81,10,10,10,24,14,31,T,2,,273
2012-4-7,80,76,72,70,66,61,74,68,62,30.07,30.01,29.93,10,10,2,18,9,26,0.20,3,Rain,69
2012-4-8,81,76,71,67,64,61,79,69,58,30.12,30.08,30.05,10,10,10,20,12,28,0.07,3,Rain,76
2012-4-9,80,76,72,63,61,58,73,61,48,30.09,30.05,30.01,10,10,10,15,8,20,0.00,3,,92
2012-4-10,81,74,67,64,61,59,87,71,54,30.09,30.04,30.01,10,10,10,12,5,17,0.00,2,,88
2012-4-11,81,76,71,65,61,59,73,62,51,30.09,30.05,30.01,10,10,10,10,4,14,0.00,1,,22
2012-4-12,81,77,72,65,63,60,73,62,51,30.09,30.05,30.01,10,10,10,13,7,17,0.00,0,,342
2012-4-13,80,74,68,68,65,62,84,71,58,30.12,30.07,30.01,10,10,9,10,4,15,0.00,0,,231
2012-4-14,82,78,73,71,67,64,79,69,58,30.17,30.12,30.06,10,10,10,28,15,36,0.08,4,Rain,102
2012-4-15,82,78,73,66,63,58,79,62,45,30.18,30.14,30.10,10,10,10,26,18,36,0.00,3,,102
2012-4-16,83,79,75,65,63,60,69,60,51,30.15,30.11,30.07,10,10,10,23,18,31,T,3,,101
2012-4-17,82,79,76,66,64,61,74,64,54,30.14,30.09,30.05,10,10,10,23,16,29,T,3,Rain,107
2012-4-18,82,79,76,68,66,64,71,67,62,30.07,30.03,29.97,10,10,10,17,10,23,T,2,,137
2012-4-19,81,79,77,69,67,66,71,67,62,30.01,29.96,29.91,10,10,10,14,9,18,0.00,0,,148
2012-4-20,83,80,77,70,69,68,76,71,65,29.94,29.90,29.84,10,10,10,16,10,20,T,1,,149
2012-4-21,79,75,71,72,69,67,90,83,76,29.86,29.79,29.68,10,8,2,22,14,28,1.99,6,Rain-Thunderstorm,79
2012-4-22,81,77,73,72,65,59,100,84,69,29.83,29.71,29.65,10,10,10,29,19,37,T,2,,275
2012-4-23,80,76,71,63,58,53,68,57,46,29.96,29.89,29.83,10,10,10,18,13,31,0.00,2,,315
2012-4-24,74,71,67,57,53,51,61,54,46,30.07,30.01,29.94,10,10,10,20,10,24,0.00,3,,344
2012-4-25,78,71,64,60,56,52,68,59,49,30.15,30.09,30.04,10,10,10,15,9,22,0.00,0,,62
2012-4-26,81,76,70,64,61,58,79,67,54,30.14,30.10,30.06,10,10,10,16,9,21,0.00,2,,90
2012-4-27,82,77,72,72,68,63,87,77,67,30.11,30.06,30.03,10,10,10,18,10,24,0.00,2,,69
2012-4-28,81,78,74,73,70,67,87,77,67,30.07,30.03,30.00,10,10,10,18,10,26,0.00,3,,81
2012-4-29,81,77,73,72,71,68,93,82,71,30.04,29.99,29.95,10,10,4,18,9,26,0.43,6,Rain,60
2012-4-30,81,77,73,73,71,68,94,87,79,29.98,29.93,29.90,10,8,1,25,15,33,2.46,7,Rain,75